sensor_id;sensor_type;location;lat;lon;timestamp;pressure;altitude;pressure_sealevel;temperature;humidity
84578;BME280;74803;44.756;19.218;2024-01-07T00:01:02;98609.41;;;14.68;54.82
84578;BME280;74803;44.756;19.218;2024-01-07T00:03:28;98597.00;;;14.75;55.19
84578;BME280;74803;44.756;19.218;2024-01-07T00:05:53;98585.88;;;14.80;54.71
84578;BME280;74803;44.756;19.218;2024-01-07T00:08:19;98592.47;;;14.82;54.40
84578;BME280;74803;44.756;19.218;2024-01-07T00:10:44;98606.59;;;14.69;54.79
84578;BME280;74803;44.756;19.218;2024-01-07T00:13:10;98607.13;;;14.83;54.89
84578;BME280;74803;44.756;19.218;2024-01-07T00:15:36;98605.91;;;14.74;55.00
84578;BME280;74803;44.756;19.218;2024-01-07T00:18:01;98587.44;;;14.81;54.38
84578;BME280;74803;44.756;19.218;2024-01-07T00:20:27;98593.53;;;14.69;54.63
84578;BME280;74803;44.756;19.218;2024-01-07T00:22:52;98589.47;;;14.90;54.63
84578;BME280;74803;44.756;19.218;2024-01-07T00:25:18;98583.47;;;14.90;54.79
84578;BME280;74803;44.756;19.218;2024-01-07T00:27:44;98596.81;;;14.65;55.25
84578;BME280;74803;44.756;19.218;2024-01-07T00:30:10;98592.94;;;14.79;54.59
84578;BME280;74803;44.756;19.218;2024-01-07T00:32:36;98592.56;;;14.87;54.34
84578;BME280;74803;44.756;19.218;2024-01-07T00:35:02;98599.75;;;14.68;54.91
84578;BME280;74803;44.756;19.218;2024-01-07T00:37:28;98601.25;;;14.53;55.49
84578;BME280;74803;44.756;19.218;2024-01-07T00:39:53;98595.75;;;14.78;55.20
84578;BME280;74803;44.756;19.218;2024-01-07T00:42:19;98601.47;;;14.63;54.96
84578;BME280;74803;44.756;19.218;2024-01-07T00:44:44;98603.00;;;14.87;54.82
84578;BME280;74803;44.756;19.218;2024-01-07T00:47:10;98601.78;;;14.90;54.41
84578;BME280;74803;44.756;19.218;2024-01-07T00:49:36;98594.28;;;14.82;54.20
84578;BME280;74803;44.756;19.218;2024-01-07T00:52:01;98590.94;;;14.98;54.01
84578;BME280;74803;44.756;19.218;2024-01-07T00:54:27;98593.47;;;14.93;53.87
84578;BME280;74803;44.756;19.218;2024-01-07T00:56:52;98597.91;;;14.81;54.26
84578;BME280;74803;44.756;19.218;2024-01-07T00:59:18;98594.69;;;14.50;55.25
84578;BME280;74803;44.756;19.218;2024-01-07T01:01:43;98593.41;;;14.18;56.00
84578;BME280;74803;44.756;19.218;2024-01-07T01:04:09;98596.00;;;14.06;56.82
84578;BME280;74803;44.756;19.218;2024-01-07T01:06:35;98600.22;;;13.96;57.25
84578;BME280;74803;44.756;19.218;2024-01-07T01:09:00;98595.97;;;13.83;57.41
84578;BME280;74803;44.756;19.218;2024-01-07T01:11:26;98581.63;;;13.62;58.26
84578;BME280;74803;44.756;19.218;2024-01-07T01:13:51;98586.03;;;13.50;58.32
84578;BME280;74803;44.756;19.218;2024-01-07T01:16:18;98592.59;;;13.41;58.81
84578;BME280;74803;44.756;19.218;2024-01-07T01:18:43;98590.41;;;13.79;57.64
84578;BME280;74803;44.756;19.218;2024-01-07T01:21:09;98581.63;;;13.51;58.58
84578;BME280;74803;44.756;19.218;2024-01-07T01:23:35;98583.34;;;13.68;58.06
84578;BME280;74803;44.756;19.218;2024-01-07T01:26:00;98576.38;;;14.04;56.87
84578;BME280;74803;44.756;19.218;2024-01-07T01:28:26;98579.81;;;14.39;55.75
84578;BME280;74803;44.756;19.218;2024-01-07T01:30:52;98582.28;;;14.22;55.66
84578;BME280;74803;44.756;19.218;2024-01-07T01:33:17;98579.22;;;14.25;55.72
84578;BME280;74803;44.756;19.218;2024-01-07T01:35:43;98576.50;;;14.20;55.86
84578;BME280;74803;44.756;19.218;2024-01-07T01:38:09;98575.66;;;13.97;56.44
84578;BME280;74803;44.756;19.218;2024-01-07T01:40:34;98571.19;;;13.51;57.45
84578;BME280;74803;44.756;19.218;2024-01-07T01:43:00;98573.94;;;13.67;57.46
84578;BME280;74803;44.756;19.218;2024-01-07T01:45:25;98573.81;;;13.62;57.50
84578;BME280;74803;44.756;19.218;2024-01-07T01:47:51;98570.56;;;13.37;57.93
84578;BME280;74803;44.756;19.218;2024-01-07T01:50:17;98574.88;;;13.31;57.85
84578;BME280;74803;44.756;19.218;2024-01-07T01:52:45;98578.34;;;13.55;57.89
84578;BME280;74803;44.756;19.218;2024-01-07T01:55:11;98583.94;;;13.29;58.40
84578;BME280;74803;44.756;19.218;2024-01-07T01:57:38;98580.38;;;13.53;57.47
84578;BME280;74803;44.756;19.218;2024-01-07T02:00:05;98588.44;;;13.63;57.15
84578;BME280;74803;44.756;19.218;2024-01-07T02:02:32;98585.09;;;13.98;56.85
84578;BME280;74803;44.756;19.218;2024-01-07T02:05:03;98578.91;;;13.16;58.61
84578;BME280;74803;44.756;19.218;2024-01-07T02:07:30;98575.28;;;13.17;58.64
84578;BME280;74803;44.756;19.218;2024-01-07T02:09:56;98572.53;;;13.12;58.70
84578;BME280;74803;44.756;19.218;2024-01-07T02:12:22;98566.75;;;12.55;59.91
84578;BME280;74803;44.756;19.218;2024-01-07T02:14:47;98570.47;;;12.47;60.53
84578;BME280;74803;44.756;19.218;2024-01-07T02:17:14;98563.13;;;12.92;59.68
84578;BME280;74803;44.756;19.218;2024-01-07T02:19:40;98564.22;;;12.67;59.98
84578;BME280;74803;44.756;19.218;2024-01-07T02:22:06;98553.00;;;12.66;60.16
84578;BME280;74803;44.756;19.218;2024-01-07T02:24:31;98555.91;;;12.76;60.08
84578;BME280;74803;44.756;19.218;2024-01-07T02:26:58;98553.75;;;13.03;58.79
84578;BME280;74803;44.756;19.218;2024-01-07T02:29:28;98560.63;;;12.97;59.21
84578;BME280;74803;44.756;19.218;2024-01-07T02:31:53;98563.75;;;12.88;59.47
84578;BME280;74803;44.756;19.218;2024-01-07T02:34:19;98568.06;;;12.82;59.91
84578;BME280;74803;44.756;19.218;2024-01-07T02:36:44;98561.91;;;12.77;60.08
84578;BME280;74803;44.756;19.218;2024-01-07T02:39:10;98562.44;;;12.67;60.32
84578;BME280;74803;44.756;19.218;2024-01-07T02:41:36;98554.53;;;12.55;61.02
84578;BME280;74803;44.756;19.218;2024-01-07T02:44:01;98556.66;;;12.95;60.20
84578;BME280;74803;44.756;19.218;2024-01-07T02:46:27;98558.84;;;13.16;59.61
84578;BME280;74803;44.756;19.218;2024-01-07T02:48:52;98554.06;;;12.95;60.06
84578;BME280;74803;44.756;19.218;2024-01-07T02:51:18;98553.66;;;13.10;59.52
84578;BME280;74803;44.756;19.218;2024-01-07T02:53:44;98551.28;;;13.08;59.55
84578;BME280;74803;44.756;19.218;2024-01-07T02:56:10;98552.78;;;12.86;60.27
84578;BME280;74803;44.756;19.218;2024-01-07T02:58:35;98546.28;;;12.40;61.31
84578;BME280;74803;44.756;19.218;2024-01-07T03:01:01;98554.81;;;12.66;61.50
84578;BME280;74803;44.756;19.218;2024-01-07T03:03:27;98552.84;;;12.25;61.70
84578;BME280;74803;44.756;19.218;2024-01-07T03:05:52;98544.19;;;12.67;61.57
84578;BME280;74803;44.756;19.218;2024-01-07T03:08:18;98547.72;;;12.54;61.90
84578;BME280;74803;44.756;19.218;2024-01-07T03:10:43;98537.25;;;12.61;60.94
84578;BME280;74803;44.756;19.218;2024-01-07T03:13:09;98543.22;;;12.25;62.56
84578;BME280;74803;44.756;19.218;2024-01-07T03:15:34;98541.66;;;12.42;62.40
84578;BME280;74803;44.756;19.218;2024-01-07T03:18:00;98536.09;;;12.57;61.58
84578;BME280;74803;44.756;19.218;2024-01-07T03:20:26;98539.03;;;12.79;60.80
84578;BME280;74803;44.756;19.218;2024-01-07T03:22:52;98544.78;;;12.33;62.07
84578;BME280;74803;44.756;19.218;2024-01-07T03:25:18;98537.03;;;12.26;62.56
84578;BME280;74803;44.756;19.218;2024-01-07T03:27:44;98528.00;;;12.04;63.32
84578;BME280;74803;44.756;19.218;2024-01-07T03:30:10;98530.53;;;11.92;63.87
84578;BME280;74803;44.756;19.218;2024-01-07T03:32:35;98531.09;;;11.69;64.28
84578;BME280;74803;44.756;19.218;2024-01-07T03:35:02;98534.03;;;11.80;64.66
84578;BME280;74803;44.756;19.218;2024-01-07T03:37:27;98532.66;;;12.02;64.14
84578;BME280;74803;44.756;19.218;2024-01-07T03:39:53;98539.41;;;11.85;64.68
84578;BME280;74803;44.756;19.218;2024-01-07T03:42:18;98541.03;;;11.79;64.39
84578;BME280;74803;44.756;19.218;2024-01-07T03:44:44;98531.31;;;12.18;64.48
84578;BME280;74803;44.756;19.218;2024-01-07T03:47:10;98535.94;;;11.91;64.43
84578;BME280;74803;44.756;19.218;2024-01-07T03:49:36;98547.97;;;12.10;63.69
84578;BME280;74803;44.756;19.218;2024-01-07T03:52:04;98540.50;;;11.95;64.29
84578;BME280;74803;44.756;19.218;2024-01-07T03:54:30;98538.31;;;11.74;65.06
84578;BME280;74803;44.756;19.218;2024-01-07T03:56:56;98541.88;;;11.48;65.83
84578;BME280;74803;44.756;19.218;2024-01-07T03:59:22;98546.13;;;11.74;65.00
84578;BME280;74803;44.756;19.218;2024-01-07T04:01:48;98551.63;;;12.64;62.66
84578;BME280;74803;44.756;19.218;2024-01-07T04:04:14;98554.78;;;12.84;61.06
84578;BME280;74803;44.756;19.218;2024-01-07T04:06:39;98552.53;;;11.96;63.38
84578;BME280;74803;44.756;19.218;2024-01-07T04:09:05;98548.75;;;11.92;64.08
84578;BME280;74803;44.756;19.218;2024-01-07T04:11:30;98552.84;;;11.82;64.21
84578;BME280;74803;44.756;19.218;2024-01-07T04:13:57;98551.91;;;11.69;65.00
84578;BME280;74803;44.756;19.218;2024-01-07T04:16:23;98562.38;;;11.32;65.57
84578;BME280;74803;44.756;19.218;2024-01-07T04:18:49;98569.13;;;11.39;65.39
84578;BME280;74803;44.756;19.218;2024-01-07T04:21:14;98569.53;;;11.74;64.20
84578;BME280;74803;44.756;19.218;2024-01-07T04:23:40;98573.78;;;11.31;65.30
84578;BME280;74803;44.756;19.218;2024-01-07T04:26:07;98576.00;;;11.58;65.07
84578;BME280;74803;44.756;19.218;2024-01-07T04:28:32;98591.25;;;11.86;63.50
84578;BME280;74803;44.756;19.218;2024-01-07T04:30:58;98581.09;;;11.09;65.65
84578;BME280;74803;44.756;19.218;2024-01-07T04:33:23;98584.59;;;11.27;65.77
84578;BME280;74803;44.756;19.218;2024-01-07T04:35:49;98579.31;;;11.41;65.02
84578;BME280;74803;44.756;19.218;2024-01-07T04:38:14;98586.41;;;11.58;66.11
84578;BME280;74803;44.756;19.218;2024-01-07T04:40:40;98589.53;;;11.74;64.16
84578;BME280;74803;44.756;19.218;2024-01-07T04:43:05;98590.47;;;11.48;65.68
84578;BME280;74803;44.756;19.218;2024-01-07T04:45:31;98578.78;;;11.63;64.92
84578;BME280;74803;44.756;19.218;2024-01-07T04:47:57;98569.25;;;10.75;67.07
84578;BME280;74803;44.756;19.218;2024-01-07T04:50:22;98570.75;;;10.38;68.16
84578;BME280;74803;44.756;19.218;2024-01-07T04:52:48;98560.88;;;10.66;67.54
84578;BME280;74803;44.756;19.218;2024-01-07T04:55:14;98562.03;;;10.77;68.27
84578;BME280;74803;44.756;19.218;2024-01-07T04:57:39;98561.41;;;10.81;68.80
84578;BME280;74803;44.756;19.218;2024-01-07T05:00:06;98573.31;;;11.40;66.45
84578;BME280;74803;44.756;19.218;2024-01-07T05:02:31;98583.09;;;11.45;65.96
84578;BME280;74803;44.756;19.218;2024-01-07T05:04:57;98582.91;;;11.02;66.00
84578;BME280;74803;44.756;19.218;2024-01-07T05:07:22;98585.50;;;11.08;66.40
84578;BME280;74803;44.756;19.218;2024-01-07T05:09:48;98584.53;;;11.03;65.61
84578;BME280;74803;44.756;19.218;2024-01-07T05:12:14;98588.81;;;10.77;66.84
84578;BME280;74803;44.756;19.218;2024-01-07T05:14:40;98587.25;;;10.63;67.33
84578;BME280;74803;44.756;19.218;2024-01-07T05:17:08;98606.19;;;11.59;65.31
84578;BME280;74803;44.756;19.218;2024-01-07T05:19:33;98608.41;;;11.94;64.23
84578;BME280;74803;44.756;19.218;2024-01-07T05:21:59;98611.78;;;11.32;65.22
84578;BME280;74803;44.756;19.218;2024-01-07T05:24:25;98607.72;;;10.98;66.55
84578;BME280;74803;44.756;19.218;2024-01-07T05:26:51;98600.50;;;11.06;66.95
84578;BME280;74803;44.756;19.218;2024-01-07T05:29:16;98606.41;;;11.26;67.05
84578;BME280;74803;44.756;19.218;2024-01-07T05:31:42;98598.75;;;10.94;68.66
84578;BME280;74803;44.756;19.218;2024-01-07T05:34:08;98608.09;;;11.01;68.08
84578;BME280;74803;44.756;19.218;2024-01-07T05:36:33;98623.59;;;11.27;66.95
84578;BME280;74803;44.756;19.218;2024-01-07T05:38:59;98612.44;;;10.69;67.31
84578;BME280;74803;44.756;19.218;2024-01-07T05:41:25;98622.00;;;11.26;66.80
84578;BME280;74803;44.756;19.218;2024-01-07T05:43:51;98618.16;;;11.67;66.77
84578;BME280;74803;44.756;19.218;2024-01-07T05:46:16;98617.41;;;11.29;65.80
84578;BME280;74803;44.756;19.218;2024-01-07T05:48:43;98622.59;;;11.29;67.04
84578;BME280;74803;44.756;19.218;2024-01-07T05:51:10;98617.00;;;11.25;66.88
84578;BME280;74803;44.756;19.218;2024-01-07T05:53:36;98617.69;;;11.07;67.50
84578;BME280;74803;44.756;19.218;2024-01-07T05:56:01;98617.34;;;11.35;67.51
84578;BME280;74803;44.756;19.218;2024-01-07T05:58:28;98623.31;;;10.98;67.51
84578;BME280;74803;44.756;19.218;2024-01-07T06:00:54;98631.66;;;11.13;67.77
84578;BME280;74803;44.756;19.218;2024-01-07T06:03:20;98622.16;;;11.38;66.20
84578;BME280;74803;44.756;19.218;2024-01-07T06:05:45;98621.34;;;10.93;67.99
84578;BME280;74803;44.756;19.218;2024-01-07T06:08:11;98630.19;;;10.66;68.77
84578;BME280;74803;44.756;19.218;2024-01-07T06:10:37;98630.97;;;10.79;68.62
84578;BME280;74803;44.756;19.218;2024-01-07T06:13:02;98634.31;;;11.00;68.79
84578;BME280;74803;44.756;19.218;2024-01-07T06:15:29;98632.66;;;11.88;67.67
84578;BME280;74803;44.756;19.218;2024-01-07T06:17:54;98633.88;;;11.85;65.88
84578;BME280;74803;44.756;19.218;2024-01-07T06:20:21;98628.75;;;12.03;66.13
84578;BME280;74803;44.756;19.218;2024-01-07T06:22:46;98631.53;;;11.77;66.15
84578;BME280;74803;44.756;19.218;2024-01-07T06:25:12;98633.63;;;11.17;67.29
84578;BME280;74803;44.756;19.218;2024-01-07T06:27:41;98633.47;;;11.50;66.96
84578;BME280;74803;44.756;19.218;2024-01-07T06:30:07;98633.81;;;11.22;67.37
84578;BME280;74803;44.756;19.218;2024-01-07T06:32:33;98629.22;;;11.56;67.23
84578;BME280;74803;44.756;19.218;2024-01-07T06:34:59;98631.09;;;11.04;68.43
84578;BME280;74803;44.756;19.218;2024-01-07T06:37:24;98626.16;;;11.34;67.92
84578;BME280;74803;44.756;19.218;2024-01-07T06:39:51;98632.25;;;11.53;67.53
84578;BME280;74803;44.756;19.218;2024-01-07T06:42:18;98643.22;;;11.23;67.16
84578;BME280;74803;44.756;19.218;2024-01-07T06:44:44;98638.91;;;11.42;66.83
84578;BME280;74803;44.756;19.218;2024-01-07T06:47:09;98645.47;;;11.51;67.38
84578;BME280;74803;44.756;19.218;2024-01-07T06:49:35;98650.28;;;11.86;66.87
84578;BME280;74803;44.756;19.218;2024-01-07T06:52:00;98655.41;;;11.61;66.14
84578;BME280;74803;44.756;19.218;2024-01-07T06:54:26;98664.66;;;11.57;66.40
84578;BME280;74803;44.756;19.218;2024-01-07T06:56:51;98667.72;;;11.41;66.46
84578;BME280;74803;44.756;19.218;2024-01-07T06:59:17;98673.59;;;11.67;66.22
84578;BME280;74803;44.756;19.218;2024-01-07T07:01:42;98675.22;;;12.25;65.64
84578;BME280;74803;44.756;19.218;2024-01-07T07:04:08;98678.16;;;11.72;65.67
84578;BME280;74803;44.756;19.218;2024-01-07T07:06:34;98687.97;;;11.77;65.54
84578;BME280;74803;44.756;19.218;2024-01-07T07:09:01;98686.25;;;11.95;65.14
84578;BME280;74803;44.756;19.218;2024-01-07T07:11:26;98686.16;;;11.39;66.31
84578;BME280;74803;44.756;19.218;2024-01-07T07:13:52;98685.91;;;11.47;66.92
84578;BME280;74803;44.756;19.218;2024-01-07T07:16:17;98692.97;;;11.72;65.67
84578;BME280;74803;44.756;19.218;2024-01-07T07:18:43;98692.28;;;11.89;65.17
84578;BME280;74803;44.756;19.218;2024-01-07T07:21:09;98692.47;;;11.94;65.89
84578;BME280;74803;44.756;19.218;2024-01-07T07:23:34;98702.22;;;12.30;64.19
84578;BME280;74803;44.756;19.218;2024-01-07T07:26:00;98706.41;;;11.24;66.30
84578;BME280;74803;44.756;19.218;2024-01-07T07:28:25;98708.66;;;12.28;65.11
84578;BME280;74803;44.756;19.218;2024-01-07T07:30:52;98710.41;;;11.78;65.38
84578;BME280;74803;44.756;19.218;2024-01-07T07:33:18;98707.13;;;11.89;65.42
84578;BME280;74803;44.756;19.218;2024-01-07T07:35:44;98711.19;;;12.34;63.78
84578;BME280;74803;44.756;19.218;2024-01-07T07:38:09;98710.00;;;12.05;64.53
84578;BME280;74803;44.756;19.218;2024-01-07T07:40:35;98714.00;;;11.70;68.67
84578;BME280;74803;44.756;19.218;2024-01-07T07:43:01;98711.63;;;11.68;73.29
84578;BME280;74803;44.756;19.218;2024-01-07T07:45:26;98709.59;;;12.08;75.20
84578;BME280;74803;44.756;19.218;2024-01-07T07:47:52;98715.22;;;11.74;75.51
84578;BME280;74803;44.756;19.218;2024-01-07T07:50:17;98716.78;;;11.82;75.57
84578;BME280;74803;44.756;19.218;2024-01-07T07:52:43;98714.03;;;12.01;77.66
84578;BME280;74803;44.756;19.218;2024-01-07T07:55:09;98720.06;;;12.02;77.60
84578;BME280;74803;44.756;19.218;2024-01-07T07:57:35;98721.19;;;11.23;75.16
84578;BME280;74803;44.756;19.218;2024-01-07T08:00:01;98716.81;;;11.24;75.28
84578;BME280;74803;44.756;19.218;2024-01-07T08:02:30;98729.81;;;11.24;76.11
84578;BME280;74803;44.756;19.218;2024-01-07T08:04:56;98724.63;;;11.11;75.73
84578;BME280;74803;44.756;19.218;2024-01-07T08:07:22;98724.84;;;11.60;77.76
84578;BME280;74803;44.756;19.218;2024-01-07T08:09:47;98730.66;;;11.56;75.85
84578;BME280;74803;44.756;19.218;2024-01-07T08:12:13;98725.72;;;11.92;77.30
84578;BME280;74803;44.756;19.218;2024-01-07T08:14:38;98731.03;;;11.66;76.99
84578;BME280;74803;44.756;19.218;2024-01-07T08:17:07;98737.53;;;11.44;75.45
84578;BME280;74803;44.756;19.218;2024-01-07T08:19:33;98731.97;;;11.27;75.11
84578;BME280;74803;44.756;19.218;2024-01-07T08:21:58;98739.41;;;11.23;75.60
84578;BME280;74803;44.756;19.218;2024-01-07T08:24:24;98745.13;;;11.96;78.34
84578;BME280;74803;44.756;19.218;2024-01-07T08:26:54;98747.78;;;11.83;77.38
84578;BME280;74803;44.756;19.218;2024-01-07T08:29:23;98746.75;;;11.91;77.39
84578;BME280;74803;44.756;19.218;2024-01-07T08:31:49;98748.31;;;11.54;75.33
84578;BME280;74803;44.756;19.218;2024-01-07T08:34:14;98751.34;;;11.44;75.91
84578;BME280;74803;44.756;19.218;2024-01-07T08:36:41;98762.25;;;11.59;75.84
84578;BME280;74803;44.756;19.218;2024-01-07T08:39:06;98757.22;;;12.16;77.02
84578;BME280;74803;44.756;19.218;2024-01-07T08:41:33;98765.53;;;11.42;76.98
84578;BME280;74803;44.756;19.218;2024-01-07T08:43:59;98769.28;;;11.59;76.37
84578;BME280;74803;44.756;19.218;2024-01-07T08:46:24;98775.84;;;11.75;76.28
84578;BME280;74803;44.756;19.218;2024-01-07T08:48:50;98776.94;;;11.41;75.90
84578;BME280;74803;44.756;19.218;2024-01-07T08:51:16;98774.22;;;11.80;76.08
84578;BME280;74803;44.756;19.218;2024-01-07T08:53:41;98767.81;;;11.83;76.11
84578;BME280;74803;44.756;19.218;2024-01-07T08:56:07;98775.44;;;11.64;76.38
84578;BME280;74803;44.756;19.218;2024-01-07T08:58:33;98775.44;;;11.78;77.58
84578;BME280;74803;44.756;19.218;2024-01-07T09:00:59;98772.44;;;11.67;76.31
84578;BME280;74803;44.756;19.218;2024-01-07T09:03:24;98778.84;;;11.65;76.66
84578;BME280;74803;44.756;19.218;2024-01-07T09:05:50;98780.63;;;12.16;79.29
84578;BME280;74803;44.756;19.218;2024-01-07T09:08:15;98785.97;;;12.27;77.76
84578;BME280;74803;44.756;19.218;2024-01-07T09:10:41;98786.91;;;12.08;76.77
84578;BME280;74803;44.756;19.218;2024-01-07T09:13:07;98788.19;;;11.86;77.30
84578;BME280;74803;44.756;19.218;2024-01-07T09:15:32;98794.00;;;11.88;75.71
84578;BME280;74803;44.756;19.218;2024-01-07T09:17:58;98794.22;;;11.80;76.46
84578;BME280;74803;44.756;19.218;2024-01-07T09:20:24;98796.91;;;12.04;77.91
84578;BME280;74803;44.756;19.218;2024-01-07T09:22:49;98796.13;;;11.53;76.24
84578;BME280;74803;44.756;19.218;2024-01-07T09:25:15;98791.78;;;11.34;77.07
84578;BME280;74803;44.756;19.218;2024-01-07T09:27:41;98783.56;;;11.94;77.30
84578;BME280;74803;44.756;19.218;2024-01-07T09:30:08;98791.44;;;11.75;77.15
84578;BME280;74803;44.756;19.218;2024-01-07T09:32:36;98776.16;;;11.91;76.62
84578;BME280;74803;44.756;19.218;2024-01-07T09:35:02;98784.84;;;11.65;76.61
84578;BME280;74803;44.756;19.218;2024-01-07T09:37:27;98780.84;;;12.14;76.58
84578;BME280;74803;44.756;19.218;2024-01-07T09:39:53;98787.63;;;11.70;77.12
84578;BME280;74803;44.756;19.218;2024-01-07T09:42:19;98783.81;;;11.80;77.37
84578;BME280;74803;44.756;19.218;2024-01-07T09:44:45;98781.69;;;11.63;77.00
84578;BME280;74803;44.756;19.218;2024-01-07T09:47:14;98784.03;;;11.72;76.68
84578;BME280;74803;44.756;19.218;2024-01-07T09:49:41;98780.19;;;11.87;77.36
84578;BME280;74803;44.756;19.218;2024-01-07T09:52:11;98788.88;;;12.13;77.34
84578;BME280;74803;44.756;19.218;2024-01-07T09:54:38;98793.66;;;11.78;76.90
84578;BME280;74803;44.756;19.218;2024-01-07T09:57:05;98789.63;;;11.82;76.69
84578;BME280;74803;44.756;19.218;2024-01-07T09:59:35;98783.84;;;11.66;77.53
84578;BME280;74803;44.756;19.218;2024-01-07T10:02:02;98777.97;;;11.91;77.15
84578;BME280;74803;44.756;19.218;2024-01-07T10:04:28;98789.25;;;11.65;76.08
84578;BME280;74803;44.756;19.218;2024-01-07T10:06:54;98780.81;;;12.52;78.16
84578;BME280;74803;44.756;19.218;2024-01-07T10:09:32;98779.78;;;12.28;77.52
84578;BME280;74803;44.756;19.218;2024-01-07T10:11:58;98764.59;;;12.50;78.03
84578;BME280;74803;44.756;19.218;2024-01-07T10:14:23;98769.66;;;12.14;76.74
84578;BME280;74803;44.756;19.218;2024-01-07T10:16:54;98770.88;;;12.04;76.40
84578;BME280;74803;44.756;19.218;2024-01-07T10:19:21;98764.41;;;12.45;77.18
84578;BME280;74803;44.756;19.218;2024-01-07T10:21:59;98765.22;;;12.45;75.70
84578;BME280;74803;44.756;19.218;2024-01-07T10:24:25;98755.53;;;12.28;76.96
84578;BME280;74803;44.756;19.218;2024-01-07T10:26:50;98763.25;;;12.09;76.90
84578;BME280;74803;44.756;19.218;2024-01-07T10:29:18;98760.06;;;12.07;74.80
84578;BME280;74803;44.756;19.218;2024-01-07T10:31:44;98762.63;;;12.70;78.28
84578;BME280;74803;44.756;19.218;2024-01-07T10:34:09;98757.25;;;12.09;75.33
84578;BME280;74803;44.756;19.218;2024-01-07T10:36:36;98757.56;;;11.88;74.15
84578;BME280;74803;44.756;19.218;2024-01-07T10:39:02;98767.66;;;12.40;75.49
84578;BME280;74803;44.756;19.218;2024-01-07T10:41:28;98760.25;;;12.13;75.88
84578;BME280;74803;44.756;19.218;2024-01-07T10:43:55;98757.50;;;12.82;76.58
84578;BME280;74803;44.756;19.218;2024-01-07T10:46:21;98759.66;;;12.67;74.20
84578;BME280;74803;44.756;19.218;2024-01-07T10:49:00;98748.53;;;12.28;73.20
84578;BME280;74803;44.756;19.218;2024-01-07T10:51:33;98750.81;;;12.43;74.99
84578;BME280;74803;44.756;19.218;2024-01-07T10:53:59;98755.72;;;12.58;75.81
84578;BME280;74803;44.756;19.218;2024-01-07T10:56:38;98759.78;;;12.96;76.19
84578;BME280;74803;44.756;19.218;2024-01-07T10:59:05;98760.94;;;12.26;75.59
84578;BME280;74803;44.756;19.218;2024-01-07T11:01:31;98755.03;;;11.75;74.62
84578;BME280;74803;44.756;19.218;2024-01-07T11:04:13;98756.63;;;11.76;74.56
84578;BME280;74803;44.756;19.218;2024-01-07T11:06:48;98753.63;;;12.10;75.17
84578;BME280;74803;44.756;19.218;2024-01-07T11:12:05;98753.81;;;11.70;76.26
84578;BME280;74803;44.756;19.218;2024-01-07T11:17:01;98750.19;;;12.16;76.80
84578;BME280;74803;44.756;19.218;2024-01-07T11:19:27;98755.66;;;12.08;76.41
84578;BME280;74803;44.756;19.218;2024-01-07T11:21:53;98763.47;;;12.08;76.40
84578;BME280;74803;44.756;19.218;2024-01-07T11:24:52;98774.00;;;11.82;75.27
84578;BME280;74803;44.756;19.218;2024-01-07T11:27:21;98774.59;;;12.53;76.36
84578;BME280;74803;44.756;19.218;2024-01-07T11:30:35;98783.75;;;12.31;76.38
84578;BME280;74803;44.756;19.218;2024-01-07T11:32:42;98775.13;;;12.30;75.91
84578;BME280;74803;44.756;19.218;2024-01-07T11:35:07;98770.75;;;11.93;74.75
84578;BME280;74803;44.756;19.218;2024-01-07T11:37:33;98767.34;;;12.24;75.47
84578;BME280;74803;44.756;19.218;2024-01-07T11:39:58;98768.84;;;12.13;75.71
84578;BME280;74803;44.756;19.218;2024-01-07T11:42:24;98776.13;;;12.29;74.22
84578;BME280;74803;44.756;19.218;2024-01-07T11:44:52;98778.78;;;12.54;75.48
84578;BME280;74803;44.756;19.218;2024-01-07T11:47:19;98776.56;;;12.26;76.14
84578;BME280;74803;44.756;19.218;2024-01-07T11:49:45;98774.56;;;11.90;75.08
84578;BME280;74803;44.756;19.218;2024-01-07T11:52:12;98768.50;;;12.03;74.88
84578;BME280;74803;44.756;19.218;2024-01-07T11:54:38;98781.44;;;12.47;75.52
84578;BME280;74803;44.756;19.218;2024-01-07T11:57:08;98779.50;;;12.36;75.23
84578;BME280;74803;44.756;19.218;2024-01-07T11:59:35;98774.84;;;12.14;75.38
84578;BME280;74803;44.756;19.218;2024-01-07T12:02:02;98783.25;;;12.72;76.48
84578;BME280;74803;44.756;19.218;2024-01-07T12:04:30;98774.13;;;12.63;74.81
84578;BME280;74803;44.756;19.218;2024-01-07T12:06:56;98776.88;;;12.43;74.72
84578;BME280;74803;44.756;19.218;2024-01-07T12:09:22;98783.41;;;13.02;76.11
84578;BME280;74803;44.756;19.218;2024-01-07T12:11:48;98784.84;;;12.73;74.56
84578;BME280;74803;44.756;19.218;2024-01-07T12:14:14;98784.59;;;12.81;75.77
84578;BME280;74803;44.756;19.218;2024-01-07T12:16:40;98786.31;;;12.37;73.67
84578;BME280;74803;44.756;19.218;2024-01-07T12:19:05;98787.56;;;12.60;76.41
84578;BME280;74803;44.756;19.218;2024-01-07T12:21:31;98786.34;;;12.87;75.98
84578;BME280;74803;44.756;19.218;2024-01-07T12:23:57;98784.78;;;12.54;75.76
84578;BME280;74803;44.756;19.218;2024-01-07T12:26:27;98776.88;;;12.68;75.16
84578;BME280;74803;44.756;19.218;2024-01-07T12:28:54;98777.25;;;12.71;74.51
84578;BME280;74803;44.756;19.218;2024-01-07T12:31:21;98789.28;;;12.41;73.58
84578;BME280;74803;44.756;19.218;2024-01-07T12:33:47;98784.91;;;13.09;74.85
84578;BME280;74803;44.756;19.218;2024-01-07T12:36:13;98777.66;;;12.93;70.52
84578;BME280;74803;44.756;19.218;2024-01-07T12:38:40;98787.00;;;13.80;64.91
84578;BME280;74803;44.756;19.218;2024-01-07T12:41:06;98781.34;;;13.04;65.98
84578;BME280;74803;44.756;19.218;2024-01-07T12:43:32;98779.59;;;12.97;66.17
84578;BME280;74803;44.756;19.218;2024-01-07T12:45:58;98788.56;;;12.83;66.22
84578;BME280;74803;44.756;19.218;2024-01-07T12:48:30;98785.13;;;13.51;65.14
84578;BME280;74803;44.756;19.218;2024-01-07T12:50:56;98789.47;;;13.75;62.92